sensor_id;sensor_type;location;lat;lon;timestamp;temperature;humidity
51476;DHT22;37554;50.362;7.568;2023-04-03T00:01:04;13.70;48.80
51476;DHT22;37554;50.362;7.568;2023-04-03T00:03:30;13.70;48.90
51476;DHT22;37554;50.362;7.568;2023-04-03T00:05:56;13.70;48.80
51476;DHT22;37554;50.362;7.568;2023-04-03T00:08:22;13.70;48.80
51476;DHT22;37554;50.362;7.568;2023-04-03T00:10:48;13.70;48.90
51476;DHT22;37554;50.362;7.568;2023-04-03T00:13:13;13.70;48.90
51476;DHT22;37554;50.362;7.568;2023-04-03T00:15:40;13.70;48.90
51476;DHT22;37554;50.362;7.568;2023-04-03T00:18:06;13.60;48.90
51476;DHT22;37554;50.362;7.568;2023-04-03T00:20:32;13.60;49.60
51476;DHT22;37554;50.362;7.568;2023-04-03T00:22:58;13.60;49.00
51476;DHT22;37554;50.362;7.568;2023-04-03T00:25:24;13.60;49.10
51476;DHT22;37554;50.362;7.568;2023-04-03T00:27:50;13.60;49.10
51476;DHT22;37554;50.362;7.568;2023-04-03T00:30:18;13.60;49.20
51476;DHT22;37554;50.362;7.568;2023-04-03T00:32:44;13.70;49.20
51476;DHT22;37554;50.362;7.568;2023-04-03T00:35:09;13.60;49.10
51476;DHT22;37554;50.362;7.568;2023-04-03T00:37:35;13.60;49.20
51476;DHT22;37554;50.362;7.568;2023-04-03T00:40:01;13.60;49.30
51476;DHT22;37554;50.362;7.568;2023-04-03T00:42:28;13.60;49.30
51476;DHT22;37554;50.362;7.568;2023-04-03T00:47:23;13.60;50.00
51476;DHT22;37554;50.362;7.568;2023-04-03T00:49:50;13.60;49.50
51476;DHT22;37554;50.362;7.568;2023-04-03T00:52:20;13.60;49.50
51476;DHT22;37554;50.362;7.568;2023-04-03T00:54:47;13.60;49.50
51476;DHT22;37554;50.362;7.568;2023-04-03T00:57:15;13.60;49.50
51476;DHT22;37554;50.362;7.568;2023-04-03T00:59:44;13.60;49.60
51476;DHT22;37554;50.362;7.568;2023-04-03T01:02:12;13.60;49.70
51476;DHT22;37554;50.362;7.568;2023-04-03T01:04:40;13.60;49.70
51476;DHT22;37554;50.362;7.568;2023-04-03T01:07:12;13.60;49.80
51476;DHT22;37554;50.362;7.568;2023-04-03T01:09:39;13.60;49.80
51476;DHT22;37554;50.362;7.568;2023-04-03T01:14:51;13.60;49.90
51476;DHT22;37554;50.362;7.568;2023-04-03T01:17:34;13.50;49.90
51476;DHT22;37554;50.362;7.568;2023-04-03T01:25:12;13.50;50.00
51476;DHT22;37554;50.362;7.568;2023-04-03T01:27:38;13.50;50.00
51476;DHT22;37554;50.362;7.568;2023-04-03T01:30:05;13.50;50.00
51476;DHT22;37554;50.362;7.568;2023-04-03T01:32:31;13.50;50.10
51476;DHT22;37554;50.362;7.568;2023-04-03T01:34:56;13.50;50.10
51476;DHT22;37554;50.362;7.568;2023-04-03T01:37:22;13.50;50.10
51476;DHT22;37554;50.362;7.568;2023-04-03T01:39:47;13.50;50.10
51476;DHT22;37554;50.362;7.568;2023-04-03T01:42:13;13.50;50.10
51476;DHT22;37554;50.362;7.568;2023-04-03T01:44:39;13.50;50.00
51476;DHT22;37554;50.362;7.568;2023-04-03T01:47:07;13.50;50.00
51476;DHT22;37554;50.362;7.568;2023-04-03T01:49:33;13.50;49.90
51476;DHT22;37554;50.362;7.568;2023-04-03T01:51:59;13.50;50.00
51476;DHT22;37554;50.362;7.568;2023-04-03T01:54:24;13.50;50.00
51476;DHT22;37554;50.362;7.568;2023-04-03T01:56:50;13.40;50.00
51476;DHT22;37554;50.362;7.568;2023-04-03T01:59:16;13.40;50.10
51476;DHT22;37554;50.362;7.568;2023-04-03T02:01:43;13.40;50.00
51476;DHT22;37554;50.362;7.568;2023-04-03T02:04:11;13.50;50.10
51476;DHT22;37554;50.362;7.568;2023-04-03T02:06:36;13.40;50.00
51476;DHT22;37554;50.362;7.568;2023-04-03T02:09:03;13.40;50.00
51476;DHT22;37554;50.362;7.568;2023-04-03T02:11:28;13.40;50.80
51476;DHT22;37554;50.362;7.568;2023-04-03T02:13:54;13.40;50.10
51476;DHT22;37554;50.362;7.568;2023-04-03T02:16:19;13.40;50.20
51476;DHT22;37554;50.362;7.568;2023-04-03T02:18:45;13.40;50.20
51476;DHT22;37554;50.362;7.568;2023-04-03T02:21:11;13.40;50.30
51476;DHT22;37554;50.362;7.568;2023-04-03T02:23:36;13.40;50.30
51476;DHT22;37554;50.362;7.568;2023-04-03T02:26:08;13.40;50.30
51476;DHT22;37554;50.362;7.568;2023-04-03T02:28:34;13.40;50.30
51476;DHT22;37554;50.362;7.568;2023-04-03T02:31:00;13.40;50.40
51476;DHT22;37554;50.362;7.568;2023-04-03T02:33:25;13.40;50.30
51476;DHT22;37554;50.362;7.568;2023-04-03T02:35:55;13.40;50.40
51476;DHT22;37554;50.362;7.568;2023-04-03T02:38:22;13.40;50.40
51476;DHT22;37554;50.362;7.568;2023-04-03T02:40:48;13.30;50.40
51476;DHT22;37554;50.362;7.568;2023-04-03T02:43:14;13.40;50.40
51476;DHT22;37554;50.362;7.568;2023-04-03T02:45:39;13.40;50.50
51476;DHT22;37554;50.362;7.568;2023-04-03T02:48:05;13.30;50.40
51476;DHT22;37554;50.362;7.568;2023-04-03T02:50:31;13.30;50.40
51476;DHT22;37554;50.362;7.568;2023-04-03T02:52:56;13.30;50.50
51476;DHT22;37554;50.362;7.568;2023-04-03T02:55:22;13.30;50.50
51476;DHT22;37554;50.362;7.568;2023-04-03T02:57:48;13.30;50.50
51476;DHT22;37554;50.362;7.568;2023-04-03T03:00:13;13.30;50.50
51476;DHT22;37554;50.362;7.568;2023-04-03T03:02:40;13.30;50.50
51476;DHT22;37554;50.362;7.568;2023-04-03T03:05:06;13.30;50.50
51476;DHT22;37554;50.362;7.568;2023-04-03T03:07:32;13.30;50.50
51476;DHT22;37554;50.362;7.568;2023-04-03T03:09:58;13.30;50.60
51476;DHT22;37554;50.362;7.568;2023-04-03T03:12:24;13.30;50.50
51476;DHT22;37554;50.362;7.568;2023-04-03T03:14:50;13.30;50.50
51476;DHT22;37554;50.362;7.568;2023-04-03T03:17:16;13.30;50.60
51476;DHT22;37554;50.362;7.568;2023-04-03T03:19:43;13.30;50.60
51476;DHT22;37554;50.362;7.568;2023-04-03T03:22:09;13.30;50.60
51476;DHT22;37554;50.362;7.568;2023-04-03T03:24:34;13.30;50.60
51476;DHT22;37554;50.362;7.568;2023-04-03T03:27:00;13.30;50.60
51476;DHT22;37554;50.362;7.568;2023-04-03T03:29:25;13.30;51.30
51476;DHT22;37554;50.362;7.568;2023-04-03T03:31:51;13.20;50.60
51476;DHT22;37554;50.362;7.568;2023-04-03T03:34:17;13.20;50.60
51476;DHT22;37554;50.362;7.568;2023-04-03T03:36:42;13.20;50.70
51476;DHT22;37554;50.362;7.568;2023-04-03T03:39:09;13.20;50.80
51476;DHT22;37554;50.362;7.568;2023-04-03T03:41:34;13.20;50.80
51476;DHT22;37554;50.362;7.568;2023-04-03T03:44:00;13.20;50.80
51476;DHT22;37554;50.362;7.568;2023-04-03T03:46:26;13.20;50.70
51476;DHT22;37554;50.362;7.568;2023-04-03T03:48:52;13.20;50.80
51476;DHT22;37554;50.362;7.568;2023-04-03T03:51:18;13.20;50.80
51476;DHT22;37554;50.362;7.568;2023-04-03T03:53:43;13.20;50.80
51476;DHT22;37554;50.362;7.568;2023-04-03T03:56:09;13.20;51.40
51476;DHT22;37554;50.362;7.568;2023-04-03T03:58:35;13.10;50.70
51476;DHT22;37554;50.362;7.568;2023-04-03T04:01:04;13.10;50.80
51476;DHT22;37554;50.362;7.568;2023-04-03T04:03:30;13.20;50.80
51476;DHT22;37554;50.362;7.568;2023-04-03T04:05:56;13.10;50.80
51476;DHT22;37554;50.362;7.568;2023-04-03T04:08:22;13.10;50.70
51476;DHT22;37554;50.362;7.568;2023-04-03T04:10:48;13.10;50.80
51476;DHT22;37554;50.362;7.568;2023-04-03T04:13:13;13.10;51.00
51476;DHT22;37554;50.362;7.568;2023-04-03T04:15:39;13.10;51.00
51476;DHT22;37554;50.362;7.568;2023-04-03T04:18:05;13.10;51.00
51476;DHT22;37554;50.362;7.568;2023-04-03T04:20:31;13.20;51.00
51476;DHT22;37554;50.362;7.568;2023-04-03T04:22:56;13.20;51.00
51476;DHT22;37554;50.362;7.568;2023-04-03T04:25:22;13.10;50.90
51476;DHT22;37554;50.362;7.568;2023-04-03T04:27:48;13.10;51.00
51476;DHT22;37554;50.362;7.568;2023-04-03T04:30:14;13.20;51.00
51476;DHT22;37554;50.362;7.568;2023-04-03T04:32:40;13.20;51.00
51476;DHT22;37554;50.362;7.568;2023-04-03T04:35:06;13.10;51.00
51476;DHT22;37554;50.362;7.568;2023-04-03T04:37:32;13.20;51.00
51476;DHT22;37554;50.362;7.568;2023-04-03T04:39:57;13.20;51.10
51476;DHT22;37554;50.362;7.568;2023-04-03T04:42:23;13.10;51.10
51476;DHT22;37554;50.362;7.568;2023-04-03T04:44:49;13.20;51.10
51476;DHT22;37554;50.362;7.568;2023-04-03T04:47:14;13.20;51.00
51476;DHT22;37554;50.362;7.568;2023-04-03T04:49:40;13.20;51.00
51476;DHT22;37554;50.362;7.568;2023-04-03T04:52:05;13.20;51.00
51476;DHT22;37554;50.362;7.568;2023-04-03T04:54:31;13.20;50.90
51476;DHT22;37554;50.362;7.568;2023-04-03T04:56:57;13.20;50.80
51476;DHT22;37554;50.362;7.568;2023-04-03T04:59:23;13.20;50.80
51476;DHT22;37554;50.362;7.568;2023-04-03T05:01:49;13.10;50.60
51476;DHT22;37554;50.362;7.568;2023-04-03T05:04:15;13.10;50.60
51476;DHT22;37554;50.362;7.568;2023-04-03T05:06:41;13.10;50.60
51476;DHT22;37554;50.362;7.568;2023-04-03T05:09:06;13.10;50.60
51476;DHT22;37554;50.362;7.568;2023-04-03T05:11:32;13.10;50.60
51476;DHT22;37554;50.362;7.568;2023-04-03T05:13:58;13.10;50.60
51476;DHT22;37554;50.362;7.568;2023-04-03T05:16:23;13.10;50.50
51476;DHT22;37554;50.362;7.568;2023-04-03T05:18:49;13.10;50.50
51476;DHT22;37554;50.362;7.568;2023-04-03T05:21:15;13.10;50.50
51476;DHT22;37554;50.362;7.568;2023-04-03T05:23:40;13.10;50.40
51476;DHT22;37554;50.362;7.568;2023-04-03T05:26:06;13.10;50.30
51476;DHT22;37554;50.362;7.568;2023-04-03T05:28:32;13.10;50.40
51476;DHT22;37554;50.362;7.568;2023-04-03T05:30:58;13.10;50.30
51476;DHT22;37554;50.362;7.568;2023-04-03T05:33:25;13.10;50.10
51476;DHT22;37554;50.362;7.568;2023-04-03T05:35:52;13.10;50.00
51476;DHT22;37554;50.362;7.568;2023-04-03T05:38:18;13.10;50.00
51476;DHT22;37554;50.362;7.568;2023-04-03T05:40:44;13.10;49.90
51476;DHT22;37554;50.362;7.568;2023-04-03T05:43:10;13.10;49.80
51476;DHT22;37554;50.362;7.568;2023-04-03T05:45:36;13.10;49.70
51476;DHT22;37554;50.362;7.568;2023-04-03T05:48:01;13.10;49.80
51476;DHT22;37554;50.362;7.568;2023-04-03T05:50:27;13.10;49.70
51476;DHT22;37554;50.362;7.568;2023-04-03T05:53:02;12.80;48.40
51476;DHT22;37554;50.362;7.568;2023-04-03T05:55:32;12.50;47.00
51476;DHT22;37554;50.362;7.568;2023-04-03T05:58:01;12.20;47.20
51476;DHT22;37554;50.362;7.568;2023-04-03T06:00:26;12.20;48.30
51476;DHT22;37554;50.362;7.568;2023-04-03T06:03:13;12.40;49.00
51476;DHT22;37554;50.362;7.568;2023-04-03T06:05:39;12.60;48.90
51476;DHT22;37554;50.362;7.568;2023-04-03T06:08:08;12.80;48.60
51476;DHT22;37554;50.362;7.568;2023-04-03T06:10:37;13.00;48.50
51476;DHT22;37554;50.362;7.568;2023-04-03T06:13:35;13.20;48.30
51476;DHT22;37554;50.362;7.568;2023-04-03T06:16:01;13.40;48.20
51476;DHT22;37554;50.362;7.568;2023-04-03T06:18:31;13.50;48.30
51476;DHT22;37554;50.362;7.568;2023-04-03T06:20:59;13.50;48.30
51476;DHT22;37554;50.362;7.568;2023-04-03T06:23:26;13.60;48.40
51476;DHT22;37554;50.362;7.568;2023-04-03T06:26:01;13.60;48.30
51476;DHT22;37554;50.362;7.568;2023-04-03T06:29:00;13.70;48.40
51476;DHT22;37554;50.362;7.568;2023-04-03T06:31:28;13.80;48.30
51476;DHT22;37554;50.362;7.568;2023-04-03T06:33:58;13.80;48.30
51476;DHT22;37554;50.362;7.568;2023-04-03T06:36:26;13.80;48.20
51476;DHT22;37554;50.362;7.568;2023-04-03T06:38:53;13.80;48.10
51476;DHT22;37554;50.362;7.568;2023-04-03T06:41:27;13.80;48.00
51476;DHT22;37554;50.362;7.568;2023-04-03T06:43:56;13.80;47.80
51476;DHT22;37554;50.362;7.568;2023-04-03T06:46:29;13.90;47.80
51476;DHT22;37554;50.362;7.568;2023-04-03T06:48:58;13.90;47.70
51476;DHT22;37554;50.362;7.568;2023-04-03T06:51:24;13.90;47.60
51476;DHT22;37554;50.362;7.568;2023-04-03T06:53:52;14.00;47.50
51476;DHT22;37554;50.362;7.568;2023-04-03T06:56:19;14.00;47.40
51476;DHT22;37554;50.362;7.568;2023-04-03T06:58:48;14.10;47.30
51476;DHT22;37554;50.362;7.568;2023-04-03T07:01:18;14.10;47.10
51476;DHT22;37554;50.362;7.568;2023-04-03T07:03:49;14.20;47.00
51476;DHT22;37554;50.362;7.568;2023-04-03T07:06:16;14.20;46.90
51476;DHT22;37554;50.362;7.568;2023-04-03T07:08:43;14.20;46.90
51476;DHT22;37554;50.362;7.568;2023-04-03T07:11:17;14.20;46.90
51476;DHT22;37554;50.362;7.568;2023-04-03T07:13:43;14.20;46.80
51476;DHT22;37554;50.362;7.568;2023-04-03T07:16:09;14.30;46.80
51476;DHT22;37554;50.362;7.568;2023-04-03T07:18:35;14.40;46.90
51476;DHT22;37554;50.362;7.568;2023-04-03T07:21:04;14.40;46.90
51476;DHT22;37554;50.362;7.568;2023-04-03T07:23:54;14.50;46.90
51476;DHT22;37554;50.362;7.568;2023-04-03T07:26:20;14.50;46.80
51476;DHT22;37554;50.362;7.568;2023-04-03T07:28:49;14.60;46.90
51476;DHT22;37554;50.362;7.568;2023-04-03T07:31:16;14.60;46.80
51476;DHT22;37554;50.362;7.568;2023-04-03T07:33:43;14.60;47.20
51476;DHT22;37554;50.362;7.568;2023-04-03T07:36:17;14.70;46.60
51476;DHT22;37554;50.362;7.568;2023-04-03T07:38:43;14.70;46.50
51476;DHT22;37554;50.362;7.568;2023-04-03T07:41:18;14.80;46.40
51476;DHT22;37554;50.362;7.568;2023-04-03T07:43:53;14.80;46.30
51476;DHT22;37554;50.362;7.568;2023-04-03T07:46:22;14.90;46.30
51476;DHT22;37554;50.362;7.568;2023-04-03T07:48:47;14.90;46.20
51476;DHT22;37554;50.362;7.568;2023-04-03T07:51:13;15.00;46.20
51476;DHT22;37554;50.362;7.568;2023-04-03T07:53:40;15.10;46.10
51476;DHT22;37554;50.362;7.568;2023-04-03T07:56:11;15.20;46.10
51476;DHT22;37554;50.362;7.568;2023-04-03T07:58:45;15.30;45.90
51476;DHT22;37554;50.362;7.568;2023-04-03T08:01:11;15.40;46.30
51476;DHT22;37554;50.362;7.568;2023-04-03T08:03:41;15.50;46.20
51476;DHT22;37554;50.362;7.568;2023-04-03T08:06:16;15.70;45.40
51476;DHT22;37554;50.362;7.568;2023-04-03T08:08:51;15.90;45.20
51476;DHT22;37554;50.362;7.568;2023-04-03T08:11:35;16.10;44.90
51476;DHT22;37554;50.362;7.568;2023-04-03T08:14:02;16.30;44.70
51476;DHT22;37554;50.362;7.568;2023-04-03T08:16:28;16.60;44.50
51476;DHT22;37554;50.362;7.568;2023-04-03T08:19:00;16.80;44.10
51476;DHT22;37554;50.362;7.568;2023-04-03T08:21:28;17.00;43.80
51476;DHT22;37554;50.362;7.568;2023-04-03T08:23:54;17.30;43.60
51476;DHT22;37554;50.362;7.568;2023-04-03T08:26:23;17.60;43.40
51476;DHT22;37554;50.362;7.568;2023-04-03T08:28:54;17.80;43.10
51476;DHT22;37554;50.362;7.568;2023-04-03T08:31:39;18.10;42.90
51476;DHT22;37554;50.362;7.568;2023-04-03T08:34:07;18.50;42.70
51476;DHT22;37554;50.362;7.568;2023-04-03T08:36:40;18.70;42.40
51476;DHT22;37554;50.362;7.568;2023-04-03T08:39:05;19.00;42.10
51476;DHT22;37554;50.362;7.568;2023-04-03T08:41:45;19.30;41.90
51476;DHT22;37554;50.362;7.568;2023-04-03T08:44:39;19.60;41.30
51476;DHT22;37554;50.362;7.568;2023-04-03T08:52:39;20.50;40.50
51476;DHT22;37554;50.362;7.568;2023-04-03T08:59:04;21.10;39.40
51476;DHT22;37554;50.362;7.568;2023-04-03T09:01:26;21.50;39.20
51476;DHT22;37554;50.362;7.568;2023-04-03T09:03:53;21.80;38.60
51476;DHT22;37554;50.362;7.568;2023-04-03T09:06:33;22.10;38.80
51476;DHT22;37554;50.362;7.568;2023-04-03T09:09:31;22.40;38.30
51476;DHT22;37554;50.362;7.568;2023-04-03T09:12:05;22.70;37.50
51476;DHT22;37554;50.362;7.568;2023-04-03T09:22:44;23.50;38.20
51476;DHT22;37554;50.362;7.568;2023-04-03T09:27:55;22.40;36.90
51476;DHT22;37554;50.362;7.568;2023-04-03T09:30:23;22.00;37.20
51476;DHT22;37554;50.362;7.568;2023-04-03T09:32:52;21.70;36.70
51476;DHT22;37554;50.362;7.568;2023-04-03T09:35:47;21.60;36.50
51476;DHT22;37554;50.362;7.568;2023-04-03T09:38:19;21.60;35.10
51476;DHT22;37554;50.362;7.568;2023-04-03T09:41:13;21.50;35.70
51476;DHT22;37554;50.362;7.568;2023-04-03T09:43:54;21.50;34.60
51476;DHT22;37554;50.362;7.568;2023-04-03T09:46:32;21.60;35.00
51476;DHT22;37554;50.362;7.568;2023-04-03T09:49:03;21.70;34.80
51476;DHT22;37554;50.362;7.568;2023-04-03T09:51:30;21.80;34.80
51476;DHT22;37554;50.362;7.568;2023-04-03T09:53:57;22.00;34.60
51476;DHT22;37554;50.362;7.568;2023-04-03T09:56:33;22.10;34.20
51476;DHT22;37554;50.362;7.568;2023-04-03T09:59:06;22.00;33.60
51476;DHT22;37554;50.362;7.568;2023-04-03T10:01:41;21.70;33.50
51476;DHT22;37554;50.362;7.568;2023-04-03T10:07:03;21.50;33.20
51476;DHT22;37554;50.362;7.568;2023-04-03T10:12:38;21.80;31.40
51476;DHT22;37554;50.362;7.568;2023-04-03T10:15:12;21.90;32.70
51476;DHT22;37554;50.362;7.568;2023-04-03T10:17:59;21.90;32.50
51476;DHT22;37554;50.362;7.568;2023-04-03T10:20:54;22.10;32.10
51476;DHT22;37554;50.362;7.568;2023-04-03T10:23:37;22.50;31.20
51476;DHT22;37554;50.362;7.568;2023-04-03T10:29:31;22.60;30.50
51476;DHT22;37554;50.362;7.568;2023-04-03T10:34:46;22.80;31.00
51476;DHT22;37554;50.362;7.568;2023-04-03T10:37:26;23.00;31.00
51476;DHT22;37554;50.362;7.568;2023-04-03T10:43:42;22.90;30.60
51476;DHT22;37554;50.362;7.568;2023-04-03T10:46:38;23.40;30.20
51476;DHT22;37554;50.362;7.568;2023-04-03T10:55:02;23.40;29.10
51476;DHT22;37554;50.362;7.568;2023-04-03T10:57:31;24.00;29.30
51476;DHT22;37554;50.362;7.568;2023-04-03T11:00:07;24.60;29.20
51476;DHT22;37554;50.362;7.568;2023-04-03T11:03:09;25.10;28.60
51476;DHT22;37554;50.362;7.568;2023-04-03T11:05:37;25.50;28.00
51476;DHT22;37554;50.362;7.568;2023-04-03T11:10:50;26.40;27.90
51476;DHT22;37554;50.362;7.568;2023-04-03T11:13:38;27.00;27.40
51476;DHT22;37554;50.362;7.568;2023-04-03T11:16:06;27.90;26.70
51476;DHT22;37554;50.362;7.568;2023-04-03T11:18:49;28.50;27.00
51476;DHT22;37554;50.362;7.568;2023-04-03T11:21:46;29.10;26.50
51476;DHT22;37554;50.362;7.568;2023-04-03T11:24:24;29.60;25.80
51476;DHT22;37554;50.362;7.568;2023-04-03T11:26:51;30.00;25.90
51476;DHT22;37554;50.362;7.568;2023-04-03T11:29:24;30.30;25.80
51476;DHT22;37554;50.362;7.568;2023-04-03T11:34:47;30.20;24.90
51476;DHT22;37554;50.362;7.568;2023-04-03T11:37:41;30.20;25.60
51476;DHT22;37554;50.362;7.568;2023-04-03T11:40:32;30.00;24.70
51476;DHT22;37554;50.362;7.568;2023-04-03T11:43:15;29.60;25.20
51476;DHT22;37554;50.362;7.568;2023-04-03T11:50:45;28.50;25.00
51476;DHT22;37554;50.362;7.568;2023-04-03T12:00:58;27.20;26.40
51476;DHT22;37554;50.362;7.568;2023-04-03T12:05:54;27.00;27.20
51476;DHT22;37554;50.362;7.568;2023-04-03T12:08:28;27.00;27.00
51476;DHT22;37554;50.362;7.568;2023-04-03T12:11:13;27.00;26.90
51476;DHT22;37554;50.362;7.568;2023-04-03T12:27:17;24.20;28.70
51476;DHT22;37554;50.362;7.568;2023-04-03T12:43:42;27.30;26.60
51476;DHT22;37554;50.362;7.568;2023-04-03T12:46:17;27.60;26.40
51476;DHT22;37554;50.362;7.568;2023-04-03T12:48:50;27.90;26.40
51476;DHT22;37554;50.362;7.568;2023-04-03T12:51:26;27.50;26.10
51476;DHT22;37554;50.362;7.568;2023-04-03T12:54:00;26.80;26.60
51476;DHT22;37554;50.362;7.568;2023-04-03T12:56:31;26.30;27.00
51476;DHT22;37554;50.362;7.568;2023-04-03T12:59:23;25.90;26.10
51476;DHT22;37554;50.362;7.568;2023-04-03T13:01:59;25.70;25.50
51476;DHT22;37554;50.362;7.568;2023-04-03T13:04:27;25.50;26.10
51476;DHT22;37554;50.362;7.568;2023-04-03T13:06:53;25.20;26.60
51476;DHT22;37554;50.362;7.568;2023-04-03T13:09:22;25.10;26.40
51476;DHT22;37554;50.362;7.568;2023-04-03T13:11:50;25.10;27.00
51476;DHT22;37554;50.362;7.568;2023-04-03T13:14:20;24.90;26.50
51476;DHT22;37554;50.362;7.568;2023-04-03T13:17:12;24.90;26.10
51476;DHT22;37554;50.362;7.568;2023-04-03T13:19:39;24.80;25.30
51476;DHT22;37554;50.362;7.568;2023-04-03T13:22:30;24.80;26.50
51476;DHT22;37554;50.362;7.568;2023-04-03T13:25:03;24.80;25.90
51476;DHT22;37554;50.362;7.568;2023-04-03T13:27:30;24.50;26.50
51476;DHT22;37554;50.362;7.568;2023-04-03T13:29:58;24.30;26.60
51476;DHT22;37554;50.362;7.568;2023-04-03T13:44:34;23.90;25.30
51476;DHT22;37554;50.362;7.568;2023-04-03T13:47:21;24.00;26.90
51476;DHT22;37554;50.362;7.568;2023-04-03T13:50:14;23.90;26.40
51476;DHT22;37554;50.362;7.568;2023-04-03T14:00:45;23.60;26.50
51476;DHT22;37554;50.362;7.568;2023-04-03T14:03:43;23.40;26.50
51476;DHT22;37554;50.362;7.568;2023-04-03T14:06:13;23.30;26.30
51476;DHT22;37554;50.362;7.568;2023-04-03T14:08:39;23.30;26.50
51476;DHT22;37554;50.362;7.568;2023-04-03T14:11:05;23.20;26.70
51476;DHT22;37554;50.362;7.568;2023-04-03T14:13:32;23.20;26.70
51476;DHT22;37554;50.362;7.568;2023-04-03T14:15:57;23.30;26.60
51476;DHT22;37554;50.362;7.568;2023-04-03T14:18:23;23.20;26.80
51476;DHT22;37554;50.362;7.568;2023-04-03T14:20:49;23.10;26.90
51476;DHT22;37554;50.362;7.568;2023-04-03T14:23:15;23.00;27.10
51476;DHT22;37554;50.362;7.568;2023-04-03T14:25:41;22.90;27.10
51476;DHT22;37554;50.362;7.568;2023-04-03T14:28:17;22.80;26.90
51476;DHT22;37554;50.362;7.568;2023-04-03T14:30:44;22.70;26.90
51476;DHT22;37554;50.362;7.568;2023-04-03T14:33:15;22.70;27.20
51476;DHT22;37554;50.362;7.568;2023-04-03T14:35:42;22.50;27.20
51476;DHT22;37554;50.362;7.568;2023-04-03T14:38:29;22.90;27.30
51476;DHT22;37554;50.362;7.568;2023-04-03T14:40:56;23.60;26.60
51476;DHT22;37554;50.362;7.568;2023-04-03T14:43:22;24.10;26.70
51476;DHT22;37554;50.362;7.568;2023-04-03T14:45:48;24.50;26.50
51476;DHT22;37554;50.362;7.568;2023-04-03T14:48:25;24.80;26.30
51476;DHT22;37554;50.362;7.568;2023-04-03T14:50:52;25.10;26.20
51476;DHT22;37554;50.362;7.568;2023-04-03T14:53:19;25.30;26.20
51476;DHT22;37554;50.362;7.568;2023-04-03T14:55:48;25.50;26.10
51476;DHT22;37554;50.362;7.568;2023-04-03T14:58:15;25.60;26.30
51476;DHT22;37554;50.362;7.568;2023-04-03T15:00:41;25.70;26.50
51476;DHT22;37554;50.362;7.568;2023-04-03T15:03:21;25.70;26.50
51476;DHT22;37554;50.362;7.568;2023-04-03T15:05:49;25.80;26.40
51476;DHT22;37554;50.362;7.568;2023-04-03T15:08:21;25.80;26.40
51476;DHT22;37554;50.362;7.568;2023-04-03T15:10:48;25.70;25.80
51476;DHT22;37554;50.362;7.568;2023-04-03T15:13:14;24.90;25.80
51476;DHT22;37554;50.362;7.568;2023-04-03T15:15:41;24.30;25.90
51476;DHT22;37554;50.362;7.568;2023-04-03T15:18:09;23.80;26.20
51476;DHT22;37554;50.362;7.568;2023-04-03T15:20:35;23.30;26.30
51476;DHT22;37554;50.362;7.568;2023-04-03T15:23:01;23.00;26.30
51476;DHT22;37554;50.362;7.568;2023-04-03T15:25:27;22.60;26.60
51476;DHT22;37554;50.362;7.568;2023-04-03T15:27:54;22.20;26.90
51476;DHT22;37554;50.362;7.568;2023-04-03T15:30:20;22.10;26.90
51476;DHT22;37554;50.362;7.568;2023-04-03T15:32:47;21.90;27.30
51476;DHT22;37554;50.362;7.568;2023-04-03T15:35:13;21.70;27.20
51476;DHT22;37554;50.362;7.568;2023-04-03T15:37:39;21.60;27.10
51476;DHT22;37554;50.362;7.568;2023-04-03T15:40:06;21.40;27.00
51476;DHT22;37554;50.362;7.568;2023-04-03T15:42:32;21.20;27.10
51476;DHT22;37554;50.362;7.568;2023-04-03T15:44:58;20.90;27.10
51476;DHT22;37554;50.362;7.568;2023-04-03T15:47:24;20.70;27.30
51476;DHT22;37554;50.362;7.568;2023-04-03T15:49:50;20.40;27.30
51476;DHT22;37554;50.362;7.568;2023-04-03T15:52:16;20.10;27.70
51476;DHT22;37554;50.362;7.568;2023-04-03T15:54:42;19.90;28.00
51476;DHT22;37554;50.362;7.568;2023-04-03T15:57:07;20.00;28.10
51476;DHT22;37554;50.362;7.568;2023-04-03T15:59:33;20.30;27.80
51476;DHT22;37554;50.362;7.568;2023-04-03T16:01:59;20.70;27.60
51476;DHT22;37554;50.362;7.568;2023-04-03T16:04:27;21.00;27.40
51476;DHT22;37554;50.362;7.568;2023-04-03T16:06:53;21.30;27.30
51476;DHT22;37554;50.362;7.568;2023-04-03T16:09:19;21.60;27.30
51476;DHT22;37554;50.362;7.568;2023-04-03T16:11:44;21.70;27.10
51476;DHT22;37554;50.362;7.568;2023-04-03T16:14:10;21.90;27.00
51476;DHT22;37554;50.362;7.568;2023-04-03T16:16:37;22.00;27.00
51476;DHT22;37554;50.362;7.568;2023-04-03T16:19:03;22.00;27.00
51476;DHT22;37554;50.362;7.568;2023-04-03T16:21:29;22.10;27.00
51476;DHT22;37554;50.362;7.568;2023-04-03T16:23:58;22.00;27.00
51476;DHT22;37554;50.362;7.568;2023-04-03T16:26:24;22.10;27.10
51476;DHT22;37554;50.362;7.568;2023-04-03T16:28:50;22.00;27.20
51476;DHT22;37554;50.362;7.568;2023-04-03T16:31:16;22.00;27.30
51476;DHT22;37554;50.362;7.568;2023-04-03T16:33:42;22.00;27.40
51476;DHT22;37554;50.362;7.568;2023-04-03T16:36:08;21.90;27.40
51476;DHT22;37554;50.362;7.568;2023-04-03T16:38:34;21.90;27.50
51476;DHT22;37554;50.362;7.568;2023-04-03T16:40:59;21.90;27.60
51476;DHT22;37554;50.362;7.568;2023-04-03T16:43:32;21.80;27.60
51476;DHT22;37554;50.362;7.568;2023-04-03T16:45:59;21.80;27.70
51476;DHT22;37554;50.362;7.568;2023-04-03T16:48:27;21.70;27.70
51476;DHT22;37554;50.362;7.568;2023-04-03T16:50:53;21.70;27.90
51476;DHT22;37554;50.362;7.568;2023-04-03T16:53:23;21.60;27.80
51476;DHT22;37554;50.362;7.568;2023-04-03T16:55:49;21.60;28.00
51476;DHT22;37554;50.362;7.568;2023-04-03T16:58:15;21.50;28.10
51476;DHT22;37554;50.362;7.568;2023-04-03T17:00:41;21.40;28.20
51476;DHT22;37554;50.362;7.568;2023-04-03T17:03:07;21.40;28.30
51476;DHT22;37554;50.362;7.568;2023-04-03T17:05:32;21.30;28.30
51476;DHT22;37554;50.362;7.568;2023-04-03T17:07:58;21.30;28.40
51476;DHT22;37554;50.362;7.568;2023-04-03T17:10:24;21.30;28.50
51476;DHT22;37554;50.362;7.568;2023-04-03T17:12:50;21.20;29.00
51476;DHT22;37554;50.362;7.568;2023-04-03T17:15:16;21.20;28.50
51476;DHT22;37554;50.362;7.568;2023-04-03T17:17:42;21.10;28.50
51476;DHT22;37554;50.362;7.568;2023-04-03T17:20:09;21.10;28.60
51476;DHT22;37554;50.362;7.568;2023-04-03T17:22:35;21.00;28.60
51476;DHT22;37554;50.362;7.568;2023-04-03T17:25:02;21.00;28.70
51476;DHT22;37554;50.362;7.568;2023-04-03T17:27:28;21.00;28.70
51476;DHT22;37554;50.362;7.568;2023-04-03T17:29:53;20.90;28.80
51476;DHT22;37554;50.362;7.568;2023-04-03T17:32:19;20.80;28.80
51476;DHT22;37554;50.362;7.568;2023-04-03T17:34:47;20.80;28.90
51476;DHT22;37554;50.362;7.568;2023-04-03T17:37:13;20.80;29.00
51476;DHT22;37554;50.362;7.568;2023-04-03T17:39:39;20.70;29.10
51476;DHT22;37554;50.362;7.568;2023-04-03T17:42:05;20.60;29.00
51476;DHT22;37554;50.362;7.568;2023-04-03T17:44:31;20.60;29.10